sensor_id;sensor_type;location;lat;lon;timestamp;P1;durP1;ratioP1;P2;durP2;ratioP2
64487;SDS011;50864;45.050;39.014;2023-06-04T00:02:12;6.28;;;3.75;;
64487;SDS011;50864;45.050;39.014;2023-06-04T00:04:38;8.98;;;4.10;;
64487;SDS011;50864;45.050;39.014;2023-06-04T00:07:04;7.22;;;3.85;;
64487;SDS011;50864;45.050;39.014;2023-06-04T00:09:30;8.32;;;4.18;;
64487;SDS011;50864;45.050;39.014;2023-06-04T00:11:56;7.07;;;4.07;;
64487;SDS011;50864;45.050;39.014;2023-06-04T00:14:21;7.50;;;3.70;;
64487;SDS011;50864;45.050;39.014;2023-06-04T00:16:47;6.25;;;3.78;;
64487;SDS011;50864;45.050;39.014;2023-06-04T00:19:13;8.85;;;4.07;;
64487;SDS011;50864;45.050;39.014;2023-06-04T00:21:39;7.40;;;4.15;;
64487;SDS011;50864;45.050;39.014;2023-06-04T00:24:05;8.57;;;3.90;;
64487;SDS011;50864;45.050;39.014;2023-06-04T00:26:31;6.80;;;4.00;;
64487;SDS011;50864;45.050;39.014;2023-06-04T00:28:57;8.75;;;4.03;;
64487;SDS011;50864;45.050;39.014;2023-06-04T00:31:22;7.78;;;3.85;;
64487;SDS011;50864;45.050;39.014;2023-06-04T00:33:49;9.95;;;4.25;;
64487;SDS011;50864;45.050;39.014;2023-06-04T00:36:15;10.45;;;4.50;;
64487;SDS011;50864;45.050;39.014;2023-06-04T00:38:40;10.23;;;4.15;;
64487;SDS011;50864;45.050;39.014;2023-06-04T00:41:06;8.18;;;4.07;;
64487;SDS011;50864;45.050;39.014;2023-06-04T00:43:32;7.55;;;4.12;;
64487;SDS011;50864;45.050;39.014;2023-06-04T00:45:58;8.32;;;3.80;;
64487;SDS011;50864;45.050;39.014;2023-06-04T00:48:25;9.55;;;4.12;;
64487;SDS011;50864;45.050;39.014;2023-06-04T00:50:53;6.70;;;4.10;;
64487;SDS011;50864;45.050;39.014;2023-06-04T00:53:19;6.70;;;4.15;;
64487;SDS011;50864;45.050;39.014;2023-06-04T00:55:46;5.80;;;3.30;;
64487;SDS011;50864;45.050;39.014;2023-06-04T00:58:11;8.55;;;3.90;;
64487;SDS011;50864;45.050;39.014;2023-06-04T01:00:38;6.50;;;3.85;;
64487;SDS011;50864;45.050;39.014;2023-06-04T01:03:07;12.07;;;3.97;;
64487;SDS011;50864;45.050;39.014;2023-06-04T01:08:04;7.57;;;3.83;;
64487;SDS011;50864;45.050;39.014;2023-06-04T01:10:31;7.32;;;3.78;;
64487;SDS011;50864;45.050;39.014;2023-06-04T01:12:56;6.55;;;3.55;;
64487;SDS011;50864;45.050;39.014;2023-06-04T01:15:22;7.50;;;3.85;;
64487;SDS011;50864;45.050;39.014;2023-06-04T01:17:49;8.75;;;4.18;;
64487;SDS011;50864;45.050;39.014;2023-06-04T01:25:15;6.45;;;3.90;;
64487;SDS011;50864;45.050;39.014;2023-06-04T01:30:12;10.65;;;4.35;;
64487;SDS011;50864;45.050;39.014;2023-06-04T01:32:38;7.97;;;4.05;;
64487;SDS011;50864;45.050;39.014;2023-06-04T01:35:07;6.45;;;3.80;;
64487;SDS011;50864;45.050;39.014;2023-06-04T01:37:33;7.50;;;4.03;;
64487;SDS011;50864;45.050;39.014;2023-06-04T01:39:59;6.82;;;3.53;;
64487;SDS011;50864;45.050;39.014;2023-06-04T01:42:24;12.07;;;4.75;;
64487;SDS011;50864;45.050;39.014;2023-06-04T01:44:50;11.23;;;4.10;;
64487;SDS011;50864;45.050;39.014;2023-06-04T01:47:16;7.93;;;3.97;;
64487;SDS011;50864;45.050;39.014;2023-06-04T01:49:42;6.62;;;3.90;;
64487;SDS011;50864;45.050;39.014;2023-06-04T01:52:07;5.95;;;4.03;;
64487;SDS011;50864;45.050;39.014;2023-06-04T01:54:33;9.82;;;4.18;;
64487;SDS011;50864;45.050;39.014;2023-06-04T01:56:59;9.18;;;4.18;;
64487;SDS011;50864;45.050;39.014;2023-06-04T01:59:26;8.10;;;4.37;;
64487;SDS011;50864;45.050;39.014;2023-06-04T02:01:52;8.07;;;4.18;;
64487;SDS011;50864;45.050;39.014;2023-06-04T02:04:21;7.75;;;4.30;;
64487;SDS011;50864;45.050;39.014;2023-06-04T02:06:48;8.23;;;4.55;;
64487;SDS011;50864;45.050;39.014;2023-06-04T02:09:14;9.13;;;4.30;;
64487;SDS011;50864;45.050;39.014;2023-06-04T02:11:40;8.45;;;4.55;;
64487;SDS011;50864;45.050;39.014;2023-06-04T02:14:05;8.35;;;3.83;;
64487;SDS011;50864;45.050;39.014;2023-06-04T02:16:31;7.62;;;4.12;;
64487;SDS011;50864;45.050;39.014;2023-06-04T02:18:57;7.62;;;3.70;;
64487;SDS011;50864;45.050;39.014;2023-06-04T02:21:24;7.32;;;3.83;;
64487;SDS011;50864;45.050;39.014;2023-06-04T02:23:50;7.22;;;4.03;;
64487;SDS011;50864;45.050;39.014;2023-06-04T02:26:16;7.40;;;4.10;;
64487;SDS011;50864;45.050;39.014;2023-06-04T02:28:41;6.57;;;3.70;;
64487;SDS011;50864;45.050;39.014;2023-06-04T02:31:08;7.47;;;3.83;;
64487;SDS011;50864;45.050;39.014;2023-06-04T02:33:33;8.00;;;3.50;;
64487;SDS011;50864;45.050;39.014;2023-06-04T02:35:59;7.55;;;4.30;;
64487;SDS011;50864;45.050;39.014;2023-06-04T02:38:26;7.07;;;4.00;;
64487;SDS011;50864;45.050;39.014;2023-06-04T02:40:51;8.65;;;3.85;;
64487;SDS011;50864;45.050;39.014;2023-06-04T02:43:17;9.75;;;4.57;;
64487;SDS011;50864;45.050;39.014;2023-06-04T02:45:43;8.82;;;3.85;;
64487;SDS011;50864;45.050;39.014;2023-06-04T02:48:09;8.05;;;4.10;;
64487;SDS011;50864;45.050;39.014;2023-06-04T02:50:35;8.88;;;3.95;;
64487;SDS011;50864;45.050;39.014;2023-06-04T02:53:01;8.30;;;3.90;;
64487;SDS011;50864;45.050;39.014;2023-06-04T02:55:26;8.75;;;3.90;;
64487;SDS011;50864;45.050;39.014;2023-06-04T02:57:52;10.57;;;4.93;;
64487;SDS011;50864;45.050;39.014;2023-06-04T03:00:18;10.48;;;4.62;;
64487;SDS011;50864;45.050;39.014;2023-06-04T03:02:45;14.70;;;5.03;;
64487;SDS011;50864;45.050;39.014;2023-06-04T03:05:12;17.02;;;6.05;;
64487;SDS011;50864;45.050;39.014;2023-06-04T03:07:40;14.05;;;5.93;;
64487;SDS011;50864;45.050;39.014;2023-06-04T03:10:09;14.75;;;6.15;;
64487;SDS011;50864;45.050;39.014;2023-06-04T03:12:35;9.68;;;4.32;;
64487;SDS011;50864;45.050;39.014;2023-06-04T03:15:02;13.95;;;5.22;;
64487;SDS011;50864;45.050;39.014;2023-06-04T03:17:29;7.82;;;4.28;;
64487;SDS011;50864;45.050;39.014;2023-06-04T03:19:56;9.23;;;3.75;;
64487;SDS011;50864;45.050;39.014;2023-06-04T03:22:24;8.63;;;4.05;;
64487;SDS011;50864;45.050;39.014;2023-06-04T03:24:50;11.40;;;5.45;;
64487;SDS011;50864;45.050;39.014;2023-06-04T03:27:15;14.23;;;5.62;;
64487;SDS011;50864;45.050;39.014;2023-06-04T03:29:44;10.77;;;5.75;;
64487;SDS011;50864;45.050;39.014;2023-06-04T03:32:11;11.02;;;5.50;;
64487;SDS011;50864;45.050;39.014;2023-06-04T03:34:38;12.30;;;6.22;;
64487;SDS011;50864;45.050;39.014;2023-06-04T03:37:05;8.13;;;5.53;;
64487;SDS011;50864;45.050;39.014;2023-06-04T03:39:31;8.20;;;5.57;;
64487;SDS011;50864;45.050;39.014;2023-06-04T03:41:59;11.35;;;5.65;;
64487;SDS011;50864;45.050;39.014;2023-06-04T03:44:26;10.13;;;5.45;;
64487;SDS011;50864;45.050;39.014;2023-06-04T03:46:52;11.45;;;5.37;;
64487;SDS011;50864;45.050;39.014;2023-06-04T03:49:21;11.23;;;6.05;;
64487;SDS011;50864;45.050;39.014;2023-06-04T03:51:50;10.82;;;5.97;;
64487;SDS011;50864;45.050;39.014;2023-06-04T03:54:17;12.48;;;6.68;;
64487;SDS011;50864;45.050;39.014;2023-06-04T03:56:44;11.88;;;6.37;;
64487;SDS011;50864;45.050;39.014;2023-06-04T03:59:10;10.63;;;6.45;;
64487;SDS011;50864;45.050;39.014;2023-06-04T04:01:36;12.02;;;6.60;;
64487;SDS011;50864;45.050;39.014;2023-06-04T04:04:03;11.68;;;6.65;;
64487;SDS011;50864;45.050;39.014;2023-06-04T04:06:31;11.43;;;6.37;;
64487;SDS011;50864;45.050;39.014;2023-06-04T04:08:57;10.30;;;5.82;;
64487;SDS011;50864;45.050;39.014;2023-06-04T04:11:25;10.80;;;6.50;;
64487;SDS011;50864;45.050;39.014;2023-06-04T04:13:51;9.27;;;5.97;;
64487;SDS011;50864;45.050;39.014;2023-06-04T04:16:18;10.55;;;6.55;;
64487;SDS011;50864;45.050;39.014;2023-06-04T04:18:44;10.10;;;6.12;;
64487;SDS011;50864;45.050;39.014;2023-06-04T04:21:10;8.13;;;5.90;;
64487;SDS011;50864;45.050;39.014;2023-06-04T04:23:37;9.80;;;6.05;;
64487;SDS011;50864;45.050;39.014;2023-06-04T04:26:08;11.05;;;6.00;;
64487;SDS011;50864;45.050;39.014;2023-06-04T04:28:43;8.32;;;5.30;;
64487;SDS011;50864;45.050;39.014;2023-06-04T04:31:10;9.93;;;6.12;;
64487;SDS011;50864;45.050;39.014;2023-06-04T04:33:36;9.90;;;6.80;;
64487;SDS011;50864;45.050;39.014;2023-06-04T04:36:06;10.10;;;6.43;;
64487;SDS011;50864;45.050;39.014;2023-06-04T04:38:36;10.30;;;6.00;;
64487;SDS011;50864;45.050;39.014;2023-06-04T04:41:03;11.65;;;6.37;;
64487;SDS011;50864;45.050;39.014;2023-06-04T04:45:56;10.90;;;6.68;;
64487;SDS011;50864;45.050;39.014;2023-06-04T04:48:22;10.73;;;5.90;;
64487;SDS011;50864;45.050;39.014;2023-06-04T04:50:47;10.57;;;6.90;;
64487;SDS011;50864;45.050;39.014;2023-06-04T04:53:14;10.27;;;7.20;;
64487;SDS011;50864;45.050;39.014;2023-06-04T04:55:39;10.63;;;6.75;;
64487;SDS011;50864;45.050;39.014;2023-06-04T04:58:06;10.95;;;6.80;;
64487;SDS011;50864;45.050;39.014;2023-06-04T05:00:33;12.95;;;8.15;;
64487;SDS011;50864;45.050;39.014;2023-06-04T05:03:00;12.30;;;8.50;;
64487;SDS011;50864;45.050;39.014;2023-06-04T05:05:26;15.27;;;9.25;;
64487;SDS011;50864;45.050;39.014;2023-06-04T05:07:52;12.93;;;9.02;;
64487;SDS011;50864;45.050;39.014;2023-06-04T05:10:21;11.45;;;8.00;;
64487;SDS011;50864;45.050;39.014;2023-06-04T05:12:54;13.07;;;8.77;;
64487;SDS011;50864;45.050;39.014;2023-06-04T05:15:22;13.05;;;9.05;;
64487;SDS011;50864;45.050;39.014;2023-06-04T05:17:51;13.60;;;8.20;;
64487;SDS011;50864;45.050;39.014;2023-06-04T05:20:29;13.38;;;8.50;;
64487;SDS011;50864;45.050;39.014;2023-06-04T05:22:56;11.23;;;8.13;;
64487;SDS011;50864;45.050;39.014;2023-06-04T05:25:22;11.77;;;7.87;;
64487;SDS011;50864;45.050;39.014;2023-06-04T05:27:48;13.88;;;8.73;;
64487;SDS011;50864;45.050;39.014;2023-06-04T05:30:16;11.68;;;8.50;;
64487;SDS011;50864;45.050;39.014;2023-06-04T05:32:42;12.98;;;8.15;;
64487;SDS011;50864;45.050;39.014;2023-06-04T05:35:09;11.45;;;7.60;;
64487;SDS011;50864;45.050;39.014;2023-06-04T05:37:35;11.85;;;7.45;;
64487;SDS011;50864;45.050;39.014;2023-06-04T05:40:03;10.10;;;7.40;;
64487;SDS011;50864;45.050;39.014;2023-06-04T05:42:32;11.77;;;7.75;;
64487;SDS011;50864;45.050;39.014;2023-06-04T05:44:58;12.15;;;8.10;;
64487;SDS011;50864;45.050;39.014;2023-06-04T05:47:24;12.02;;;8.40;;
64487;SDS011;50864;45.050;39.014;2023-06-04T05:49:50;14.48;;;9.50;;
64487;SDS011;50864;45.050;39.014;2023-06-04T05:52:17;13.15;;;7.90;;
64487;SDS011;50864;45.050;39.014;2023-06-04T05:54:44;12.93;;;8.18;;
64487;SDS011;50864;45.050;39.014;2023-06-04T05:57:11;13.07;;;8.63;;
64487;SDS011;50864;45.050;39.014;2023-06-04T05:59:37;11.52;;;7.87;;
64487;SDS011;50864;45.050;39.014;2023-06-04T06:02:04;9.13;;;6.32;;
64487;SDS011;50864;45.050;39.014;2023-06-04T06:04:31;12.90;;;8.27;;
64487;SDS011;50864;45.050;39.014;2023-06-04T06:06:57;12.35;;;8.15;;
64487;SDS011;50864;45.050;39.014;2023-06-04T06:09:23;10.82;;;6.68;;
64487;SDS011;50864;45.050;39.014;2023-06-04T06:11:49;8.77;;;5.78;;
64487;SDS011;50864;45.050;39.014;2023-06-04T06:14:15;10.23;;;6.20;;
64487;SDS011;50864;45.050;39.014;2023-06-04T06:16:43;11.57;;;6.35;;
64487;SDS011;50864;45.050;39.014;2023-06-04T06:19:09;10.75;;;6.37;;
64487;SDS011;50864;45.050;39.014;2023-06-04T06:21:36;9.95;;;5.93;;
64487;SDS011;50864;45.050;39.014;2023-06-04T06:24:02;11.52;;;6.45;;
64487;SDS011;50864;45.050;39.014;2023-06-04T06:26:31;9.90;;;5.40;;
64487;SDS011;50864;45.050;39.014;2023-06-04T06:28:58;11.00;;;5.95;;
64487;SDS011;50864;45.050;39.014;2023-06-04T06:31:27;9.38;;;6.00;;
64487;SDS011;50864;45.050;39.014;2023-06-04T06:33:53;8.68;;;5.20;;
64487;SDS011;50864;45.050;39.014;2023-06-04T06:36:19;11.43;;;6.00;;
64487;SDS011;50864;45.050;39.014;2023-06-04T06:38:45;11.10;;;6.10;;
64487;SDS011;50864;45.050;39.014;2023-06-04T06:41:11;8.20;;;5.15;;
64487;SDS011;50864;45.050;39.014;2023-06-04T06:43:37;11.07;;;5.35;;
64487;SDS011;50864;45.050;39.014;2023-06-04T06:46:03;7.53;;;4.65;;
64487;SDS011;50864;45.050;39.014;2023-06-04T06:48:29;10.20;;;5.28;;
64487;SDS011;50864;45.050;39.014;2023-06-04T06:50:55;7.97;;;4.97;;
64487;SDS011;50864;45.050;39.014;2023-06-04T06:53:21;7.85;;;4.80;;
64487;SDS011;50864;45.050;39.014;2023-06-04T06:55:47;10.65;;;5.62;;
64487;SDS011;50864;45.050;39.014;2023-06-04T06:58:13;8.93;;;5.20;;
64487;SDS011;50864;45.050;39.014;2023-06-04T07:00:39;10.85;;;5.55;;
64487;SDS011;50864;45.050;39.014;2023-06-04T07:03:05;7.78;;;5.25;;
64487;SDS011;50864;45.050;39.014;2023-06-04T07:05:30;8.27;;;5.62;;
64487;SDS011;50864;45.050;39.014;2023-06-04T07:07:56;9.20;;;5.78;;
64487;SDS011;50864;45.050;39.014;2023-06-04T07:10:24;8.25;;;5.05;;
64487;SDS011;50864;45.050;39.014;2023-06-04T07:12:50;10.45;;;6.47;;
64487;SDS011;50864;45.050;39.014;2023-06-04T07:15:16;8.15;;;5.95;;
64487;SDS011;50864;45.050;39.014;2023-06-04T07:17:42;9.60;;;6.78;;
64487;SDS011;50864;45.050;39.014;2023-06-04T07:20:08;8.23;;;5.62;;
64487;SDS011;50864;45.050;39.014;2023-06-04T07:22:35;13.07;;;7.57;;
64487;SDS011;50864;45.050;39.014;2023-06-04T07:25:01;11.20;;;6.53;;
64487;SDS011;50864;45.050;39.014;2023-06-04T07:27:27;11.90;;;6.90;;
64487;SDS011;50864;45.050;39.014;2023-06-04T07:29:53;10.10;;;6.37;;
64487;SDS011;50864;45.050;39.014;2023-06-04T07:32:19;10.07;;;7.20;;
64487;SDS011;50864;45.050;39.014;2023-06-04T07:34:45;12.45;;;7.78;;
64487;SDS011;50864;45.050;39.014;2023-06-04T07:37:11;11.07;;;7.22;;
64487;SDS011;50864;45.050;39.014;2023-06-04T07:39:38;11.55;;;8.25;;
64487;SDS011;50864;45.050;39.014;2023-06-04T07:42:05;12.50;;;6.72;;
64487;SDS011;50864;45.050;39.014;2023-06-04T07:44:33;8.55;;;5.82;;
64487;SDS011;50864;45.050;39.014;2023-06-04T07:46:59;10.02;;;6.60;;
64487;SDS011;50864;45.050;39.014;2023-06-04T07:49:25;8.48;;;6.10;;
64487;SDS011;50864;45.050;39.014;2023-06-04T07:51:51;10.73;;;6.00;;
64487;SDS011;50864;45.050;39.014;2023-06-04T07:54:17;9.07;;;5.57;;
64487;SDS011;50864;45.050;39.014;2023-06-04T07:56:43;11.50;;;6.15;;
64487;SDS011;50864;45.050;39.014;2023-06-04T07:59:09;9.52;;;6.32;;
64487;SDS011;50864;45.050;39.014;2023-06-04T08:01:35;8.65;;;5.85;;
64487;SDS011;50864;45.050;39.014;2023-06-04T08:04:01;9.80;;;6.07;;
64487;SDS011;50864;45.050;39.014;2023-06-04T08:06:27;7.62;;;5.37;;
64487;SDS011;50864;45.050;39.014;2023-06-04T08:08:53;8.98;;;4.90;;
64487;SDS011;50864;45.050;39.014;2023-06-04T08:11:19;8.73;;;5.22;;
64487;SDS011;50864;45.050;39.014;2023-06-04T08:13:44;10.73;;;5.43;;
64487;SDS011;50864;45.050;39.014;2023-06-04T08:16:10;9.25;;;5.60;;
64487;SDS011;50864;45.050;39.014;2023-06-04T08:18:39;10.25;;;6.10;;
64487;SDS011;50864;45.050;39.014;2023-06-04T08:21:08;12.43;;;7.57;;
64487;SDS011;50864;45.050;39.014;2023-06-04T08:23:34;10.70;;;6.32;;
64487;SDS011;50864;45.050;39.014;2023-06-04T08:26:00;7.85;;;5.93;;
64487;SDS011;50864;45.050;39.014;2023-06-04T08:28:26;9.23;;;6.50;;
64487;SDS011;50864;45.050;39.014;2023-06-04T08:30:51;8.40;;;5.93;;
64487;SDS011;50864;45.050;39.014;2023-06-04T08:33:17;10.05;;;5.97;;
64487;SDS011;50864;45.050;39.014;2023-06-04T08:35:43;10.13;;;6.72;;
64487;SDS011;50864;45.050;39.014;2023-06-04T08:38:08;12.93;;;5.97;;
64487;SDS011;50864;45.050;39.014;2023-06-04T08:40:35;12.02;;;6.62;;
64487;SDS011;50864;45.050;39.014;2023-06-04T08:43:01;11.48;;;6.78;;
64487;SDS011;50864;45.050;39.014;2023-06-04T08:45:27;10.32;;;6.90;;
64487;SDS011;50864;45.050;39.014;2023-06-04T08:47:53;9.57;;;7.05;;
64487;SDS011;50864;45.050;39.014;2023-06-04T08:50:23;8.52;;;6.03;;
64487;SDS011;50864;45.050;39.014;2023-06-04T08:52:53;9.35;;;6.80;;
64487;SDS011;50864;45.050;39.014;2023-06-04T08:55:20;10.55;;;6.75;;
64487;SDS011;50864;45.050;39.014;2023-06-04T08:57:47;13.05;;;7.95;;
64487;SDS011;50864;45.050;39.014;2023-06-04T09:00:13;10.85;;;7.45;;
64487;SDS011;50864;45.050;39.014;2023-06-04T09:02:40;9.30;;;6.72;;
64487;SDS011;50864;45.050;39.014;2023-06-04T09:05:06;10.77;;;7.90;;
64487;SDS011;50864;45.050;39.014;2023-06-04T09:07:35;10.15;;;7.80;;
64487;SDS011;50864;45.050;39.014;2023-06-04T09:10:01;10.25;;;7.00;;
64487;SDS011;50864;45.050;39.014;2023-06-04T09:12:27;10.90;;;7.62;;
64487;SDS011;50864;45.050;39.014;2023-06-04T09:14:53;32.45;;;20.20;;
64487;SDS011;50864;45.050;39.014;2023-06-04T09:17:22;11.20;;;9.20;;
64487;SDS011;50864;45.050;39.014;2023-06-04T09:19:48;13.50;;;9.30;;
64487;SDS011;50864;45.050;39.014;2023-06-04T09:22:15;12.02;;;8.13;;
64487;SDS011;50864;45.050;39.014;2023-06-04T09:24:42;12.45;;;8.13;;
64487;SDS011;50864;45.050;39.014;2023-06-04T09:27:15;10.30;;;7.20;;
64487;SDS011;50864;45.050;39.014;2023-06-04T09:29:51;10.85;;;8.02;;
64487;SDS011;50864;45.050;39.014;2023-06-04T09:32:28;9.57;;;7.35;;
64487;SDS011;50864;45.050;39.014;2023-06-04T09:34:54;9.35;;;7.30;;
64487;SDS011;50864;45.050;39.014;2023-06-04T09:37:20;10.60;;;7.10;;
64487;SDS011;50864;45.050;39.014;2023-06-04T09:39:55;10.57;;;6.78;;
64487;SDS011;50864;45.050;39.014;2023-06-04T09:42:21;9.43;;;6.90;;
64487;SDS011;50864;45.050;39.014;2023-06-04T09:44:47;10.88;;;6.68;;
64487;SDS011;50864;45.050;39.014;2023-06-04T09:47:13;11.85;;;6.57;;
64487;SDS011;50864;45.050;39.014;2023-06-04T09:49:43;8.95;;;6.80;;
64487;SDS011;50864;45.050;39.014;2023-06-04T09:52:09;12.02;;;7.57;;
64487;SDS011;50864;45.050;39.014;2023-06-04T09:54:38;10.38;;;7.00;;
64487;SDS011;50864;45.050;39.014;2023-06-04T09:57:05;10.20;;;6.55;;
64487;SDS011;50864;45.050;39.014;2023-06-04T09:59:35;9.30;;;6.30;;
64487;SDS011;50864;45.050;39.014;2023-06-04T10:02:02;9.85;;;6.65;;
64487;SDS011;50864;45.050;39.014;2023-06-04T10:04:29;13.88;;;6.93;;
64487;SDS011;50864;45.050;39.014;2023-06-04T10:06:55;10.88;;;7.45;;
64487;SDS011;50864;45.050;39.014;2023-06-04T10:09:21;13.62;;;6.32;;
64487;SDS011;50864;45.050;39.014;2023-06-04T10:11:53;9.95;;;6.37;;
64487;SDS011;50864;45.050;39.014;2023-06-04T10:14:22;11.77;;;7.65;;
64487;SDS011;50864;45.050;39.014;2023-06-04T10:16:49;7.25;;;5.10;;
64487;SDS011;50864;45.050;39.014;2023-06-04T10:19:16;7.90;;;5.28;;
64487;SDS011;50864;45.050;39.014;2023-06-04T10:21:43;11.82;;;5.97;;
64487;SDS011;50864;45.050;39.014;2023-06-04T10:24:09;11.93;;;6.15;;
64487;SDS011;50864;45.050;39.014;2023-06-04T10:26:37;11.02;;;6.03;;
64487;SDS011;50864;45.050;39.014;2023-06-04T10:29:05;7.40;;;5.45;;
64487;SDS011;50864;45.050;39.014;2023-06-04T10:31:31;9.00;;;5.90;;
64487;SDS011;50864;45.050;39.014;2023-06-04T10:33:57;9.70;;;6.37;;
64487;SDS011;50864;45.050;39.014;2023-06-04T10:36:23;12.70;;;8.93;;
64487;SDS011;50864;45.050;39.014;2023-06-04T10:38:51;11.75;;;7.22;;
64487;SDS011;50864;45.050;39.014;2023-06-04T10:41:17;8.77;;;5.70;;
64487;SDS011;50864;45.050;39.014;2023-06-04T10:43:47;9.88;;;6.50;;
64487;SDS011;50864;45.050;39.014;2023-06-04T10:46:15;11.73;;;6.33;;
64487;SDS011;50864;45.050;39.014;2023-06-04T10:48:48;8.52;;;6.45;;
64487;SDS011;50864;45.050;39.014;2023-06-04T10:51:14;9.25;;;6.22;;
64487;SDS011;50864;45.050;39.014;2023-06-04T10:53:40;13.07;;;6.28;;
64487;SDS011;50864;45.050;39.014;2023-06-04T10:56:06;8.60;;;5.80;;
64487;SDS011;50864;45.050;39.014;2023-06-04T10:58:32;10.63;;;6.93;;
64487;SDS011;50864;45.050;39.014;2023-06-04T11:00:58;9.73;;;5.50;;
64487;SDS011;50864;45.050;39.014;2023-06-04T11:03:23;7.32;;;5.00;;
64487;SDS011;50864;45.050;39.014;2023-06-04T11:06:00;8.85;;;5.22;;
64487;SDS011;50864;45.050;39.014;2023-06-04T11:08:29;7.75;;;5.32;;
64487;SDS011;50864;45.050;39.014;2023-06-04T11:10:55;8.57;;;5.37;;
64487;SDS011;50864;45.050;39.014;2023-06-04T11:13:24;9.30;;;4.87;;
64487;SDS011;50864;45.050;39.014;2023-06-04T11:15:51;10.23;;;4.82;;
64487;SDS011;50864;45.050;39.014;2023-06-04T11:18:17;9.40;;;5.40;;
64487;SDS011;50864;45.050;39.014;2023-06-04T11:20:44;11.48;;;5.70;;
64487;SDS011;50864;45.050;39.014;2023-06-04T11:23:11;9.18;;;4.82;;
64487;SDS011;50864;45.050;39.014;2023-06-04T11:25:37;7.93;;;4.68;;
64487;SDS011;50864;45.050;39.014;2023-06-04T11:28:03;8.82;;;5.07;;
64487;SDS011;50864;45.050;39.014;2023-06-04T11:30:29;10.68;;;6.50;;
64487;SDS011;50864;45.050;39.014;2023-06-04T11:33:29;8.82;;;5.20;;
64487;SDS011;50864;45.050;39.014;2023-06-04T11:35:48;7.65;;;4.97;;
64487;SDS011;50864;45.050;39.014;2023-06-04T11:38:13;10.38;;;5.28;;
64487;SDS011;50864;45.050;39.014;2023-06-04T11:40:39;7.18;;;4.25;;
64487;SDS011;50864;45.050;39.014;2023-06-04T11:43:05;8.38;;;4.60;;
64487;SDS011;50864;45.050;39.014;2023-06-04T11:45:34;9.40;;;5.30;;
64487;SDS011;50864;45.050;39.014;2023-06-04T11:48:00;7.60;;;4.80;;
64487;SDS011;50864;45.050;39.014;2023-06-04T11:50:27;8.20;;;5.15;;
64487;SDS011;50864;45.050;39.014;2023-06-04T11:52:53;10.68;;;5.32;;
64487;SDS011;50864;45.050;39.014;2023-06-04T11:55:19;9.15;;;5.60;;
64487;SDS011;50864;45.050;39.014;2023-06-04T11:57:48;9.77;;;6.00;;
64487;SDS011;50864;45.050;39.014;2023-06-04T12:00:15;9.32;;;5.90;;
64487;SDS011;50864;45.050;39.014;2023-06-04T12:02:54;7.75;;;4.70;;
64487;SDS011;50864;45.050;39.014;2023-06-04T12:05:21;8.25;;;4.90;;
64487;SDS011;50864;45.050;39.014;2023-06-04T12:07:49;8.95;;;5.20;;
64487;SDS011;50864;45.050;39.014;2023-06-04T12:10:18;8.70;;;4.68;;
64487;SDS011;50864;45.050;39.014;2023-06-04T12:12:44;9.52;;;6.43;;
64487;SDS011;50864;45.050;39.014;2023-06-04T12:15:10;7.93;;;4.93;;
64487;SDS011;50864;45.050;39.014;2023-06-04T12:17:36;8.65;;;5.40;;
64487;SDS011;50864;45.050;39.014;2023-06-04T12:20:05;9.32;;;5.62;;
64487;SDS011;50864;45.050;39.014;2023-06-04T12:22:31;8.52;;;5.10;;
64487;SDS011;50864;45.050;39.014;2023-06-04T12:24:57;8.77;;;4.93;;
64487;SDS011;50864;45.050;39.014;2023-06-04T12:27:25;9.65;;;5.40;;
64487;SDS011;50864;45.050;39.014;2023-06-04T12:32:20;8.52;;;5.10;;
64487;SDS011;50864;45.050;39.014;2023-06-04T12:34:46;8.25;;;4.93;;
64487;SDS011;50864;45.050;39.014;2023-06-04T12:37:13;8.23;;;5.75;;
64487;SDS011;50864;45.050;39.014;2023-06-04T12:39:39;6.78;;;4.28;;
64487;SDS011;50864;45.050;39.014;2023-06-04T12:42:05;8.68;;;4.87;;
64487;SDS011;50864;45.050;39.014;2023-06-04T12:44:32;8.57;;;4.82;;
64487;SDS011;50864;45.050;39.014;2023-06-04T12:46:58;11.38;;;5.68;;
64487;SDS011;50864;45.050;39.014;2023-06-04T12:49:23;7.95;;;4.10;;
64487;SDS011;50864;45.050;39.014;2023-06-04T12:51:49;7.25;;;4.50;;
64487;SDS011;50864;45.050;39.014;2023-06-04T12:54:15;11.25;;;5.32;;
64487;SDS011;50864;45.050;39.014;2023-06-04T12:56:41;13.00;;;6.47;;
64487;SDS011;50864;45.050;39.014;2023-06-04T12:59:07;7.78;;;5.12;;
64487;SDS011;50864;45.050;39.014;2023-06-04T13:01:33;12.68;;;4.70;;
64487;SDS011;50864;45.050;39.014;2023-06-04T13:03:58;10.00;;;4.90;;
64487;SDS011;50864;45.050;39.014;2023-06-04T13:06:25;8.85;;;4.97;;
64487;SDS011;50864;45.050;39.014;2023-06-04T13:08:51;7.30;;;4.22;;
64487;SDS011;50864;45.050;39.014;2023-06-04T13:11:17;6.62;;;4.30;;
64487;SDS011;50864;45.050;39.014;2023-06-04T13:13:43;9.55;;;4.40;;
64487;SDS011;50864;45.050;39.014;2023-06-04T13:16:09;7.62;;;4.55;;
64487;SDS011;50864;45.050;39.014;2023-06-04T13:18:34;7.93;;;4.97;;
64487;SDS011;50864;45.050;39.014;2023-06-04T13:21:01;8.90;;;4.35;;
64487;SDS011;50864;45.050;39.014;2023-06-04T13:23:26;7.90;;;4.60;;
64487;SDS011;50864;45.050;39.014;2023-06-04T13:25:52;6.40;;;3.92;;
64487;SDS011;50864;45.050;39.014;2023-06-04T13:28:18;7.62;;;4.22;;
64487;SDS011;50864;45.050;39.014;2023-06-04T13:30:44;8.02;;;4.65;;
64487;SDS011;50864;45.050;39.014;2023-06-04T13:33:10;6.57;;;3.85;;
64487;SDS011;50864;45.050;39.014;2023-06-04T13:35:36;13.77;;;3.62;;
64487;SDS011;50864;45.050;39.014;2023-06-04T13:38:03;7.00;;;3.58;;
64487;SDS011;50864;45.050;39.014;2023-06-04T13:40:29;7.50;;;4.05;;
64487;SDS011;50864;45.050;39.014;2023-06-04T13:42:55;7.25;;;3.83;;
64487;SDS011;50864;45.050;39.014;2023-06-04T13:45:21;7.78;;;4.10;;
64487;SDS011;50864;45.050;39.014;2023-06-04T13:47:47;11.38;;;3.87;;
64487;SDS011;50864;45.050;39.014;2023-06-04T13:50:15;6.75;;;3.62;;
64487;SDS011;50864;45.050;39.014;2023-06-04T13:52:41;6.57;;;3.97;;
64487;SDS011;50864;45.050;39.014;2023-06-04T13:55:07;8.68;;;3.78;;
64487;SDS011;50864;45.050;39.014;2023-06-04T13:57:33;5.80;;;3.17;;
64487;SDS011;50864;45.050;39.014;2023-06-04T13:59:59;6.37;;;3.45;;
64487;SDS011;50864;45.050;39.014;2023-06-04T14:02:25;6.97;;;3.45;;
64487;SDS011;50864;45.050;39.014;2023-06-04T14:04:52;7.18;;;3.35;;
64487;SDS011;50864;45.050;39.014;2023-06-04T14:07:18;6.90;;;3.55;;
64487;SDS011;50864;45.050;39.014;2023-06-04T14:09:44;7.75;;;3.78;;
64487;SDS011;50864;45.050;39.014;2023-06-04T14:12:11;8.98;;;3.90;;
64487;SDS011;50864;45.050;39.014;2023-06-04T14:14:36;7.10;;;4.03;;
64487;SDS011;50864;45.050;39.014;2023-06-04T14:17:05;9.18;;;4.50;;
64487;SDS011;50864;45.050;39.014;2023-06-04T14:19:35;7.28;;;3.87;;
64487;SDS011;50864;45.050;39.014;2023-06-04T14:22:01;7.35;;;3.85;;
64487;SDS011;50864;45.050;39.014;2023-06-04T14:24:26;6.78;;;4.18;;
64487;SDS011;50864;45.050;39.014;2023-06-04T14:26:52;7.45;;;4.22;;
64487;SDS011;50864;45.050;39.014;2023-06-04T14:29:18;7.97;;;4.28;;
64487;SDS011;50864;45.050;39.014;2023-06-04T14:31:45;7.93;;;4.65;;
64487;SDS011;50864;45.050;39.014;2023-06-04T14:34:11;7.93;;;4.68;;
64487;SDS011;50864;45.050;39.014;2023-06-04T14:36:37;9.57;;;4.75;;
64487;SDS011;50864;45.050;39.014;2023-06-04T14:39:02;7.60;;;4.87;;
64487;SDS011;50864;45.050;39.014;2023-06-04T14:41:28;7.40;;;4.80;;